createdAt,value
2023-04-15T00:02:18.382Z,3.75
2023-04-15T00:05:20.961Z,3.78
2023-04-15T00:08:23.108Z,3.77
2023-04-15T00:11:25.320Z,3.78
2023-04-15T00:14:28.170Z,3.88
2023-04-15T00:17:30.409Z,3.99
2023-04-15T00:20:32.469Z,3.93
2023-04-15T00:23:36.461Z,3.90
2023-04-15T00:26:38.586Z,3.94
2023-04-15T00:29:40.749Z,4.01
2023-04-15T00:32:42.872Z,4.02
2023-04-15T00:35:45.049Z,4.16
2023-04-15T00:38:47.267Z,4.27
2023-04-15T00:41:49.421Z,4.31
2023-04-15T00:44:51.754Z,4.27
2023-04-15T00:47:54.010Z,4.36
2023-04-15T00:50:56.228Z,4.33
2023-04-15T00:53:58.325Z,4.39
2023-04-15T00:57:00.779Z,4.36
2023-04-15T01:00:04.702Z,4.31
2023-04-15T01:03:07.009Z,4.29
2023-04-15T01:06:09.259Z,4.32
2023-04-15T01:09:11.925Z,4.37
2023-04-15T01:12:15.536Z,4.46
2023-04-15T01:15:17.646Z,4.54
2023-04-15T01:18:20.001Z,4.49
2023-04-15T01:21:22.315Z,4.49
2023-04-15T01:24:26.172Z,4.47
2023-04-15T01:27:28.593Z,4.42
2023-04-15T01:30:33.964Z,4.33
2023-04-15T01:33:37.124Z,4.32
2023-04-15T01:36:39.606Z,4.29
2023-04-15T01:39:41.727Z,4.42
2023-04-15T01:42:43.909Z,4.43
2023-04-15T01:45:46.358Z,4.44
2023-04-15T01:48:48.832Z,4.42
2023-04-15T01:51:50.920Z,4.44
2023-04-15T01:54:53.393Z,4.43
2023-04-15T01:57:55.530Z,4.43
2023-04-15T02:00:58.578Z,4.36
2023-04-15T02:04:01.417Z,4.41
2023-04-15T02:07:03.704Z,4.37
2023-04-15T02:10:06.403Z,4.38
2023-04-15T02:13:11.331Z,4.43
2023-04-15T02:16:17.984Z,4.43
2023-04-15T02:19:20.204Z,4.44
2023-04-15T02:22:22.854Z,4.49
2023-04-15T02:25:25.151Z,4.54
2023-04-15T02:28:28.016Z,4.60
2023-04-15T02:31:30.509Z,4.54
2023-04-15T02:34:34.663Z,4.61
2023-04-15T02:37:40.824Z,4.54
2023-04-15T02:40:44.954Z,4.53
2023-04-15T02:43:48.281Z,4.58
2023-04-15T02:46:52.981Z,4.64
2023-04-15T02:49:58.978Z,4.59
2023-04-15T02:53:02.887Z,4.57
2023-04-15T02:56:07.065Z,4.73
2023-04-15T02:59:09.626Z,4.65
2023-04-15T03:02:12.111Z,4.68
2023-04-15T03:05:14.946Z,4.74
2023-04-15T03:08:23.530Z,4.77
2023-04-15T03:11:27.456Z,4.73
2023-04-15T03:14:30.042Z,4.82
2023-04-15T03:17:32.598Z,4.80
2023-04-15T03:20:36.652Z,4.85
2023-04-15T03:23:38.954Z,4.83
2023-04-15T03:26:41.630Z,4.90
2023-04-15T03:29:47.730Z,4.94
2023-04-15T03:32:52.425Z,4.96
2023-04-15T03:35:55.439Z,4.94
2023-04-15T03:38:58.418Z,5.12
2023-04-15T03:42:01.858Z,5.03
2023-04-15T03:45:04.395Z,5.09
2023-04-15T03:48:16.461Z,5.11
2023-04-15T03:51:19.786Z,5.14
2023-04-15T03:54:22.231Z,5.14
2023-04-15T03:57:24.472Z,5.17
2023-04-15T04:00:26.935Z,5.13
2023-04-15T04:03:29.379Z,5.13
2023-04-15T04:06:31.754Z,5.18
2023-04-15T04:09:34.707Z,5.22
2023-04-15T04:12:36.855Z,5.17
2023-04-15T04:15:39.308Z,5.12
2023-04-15T04:18:41.782Z,5.14
2023-04-15T04:21:44.048Z,5.21
2023-04-15T04:24:46.680Z,5.34
2023-04-15T04:27:48.869Z,5.40
2023-04-15T04:30:51.544Z,5.33
2023-04-15T04:33:54.004Z,5.43
2023-04-15T04:36:57.006Z,5.32
2023-04-15T04:39:59.491Z,5.28
2023-04-15T04:43:02.138Z,5.32
2023-04-15T04:46:04.583Z,5.31
2023-04-15T04:49:07.134Z,5.56
2023-04-15T04:52:10.485Z,5.56
2023-04-15T04:55:12.873Z,5.62
2023-04-15T04:58:15.269Z,5.66
2023-04-15T05:01:17.585Z,5.77
2023-04-15T05:04:20.011Z,5.59
2023-04-15T05:07:22.446Z,5.53
2023-04-15T05:10:24.916Z,5.66
2023-04-15T05:13:27.221Z,5.81
2023-04-15T05:16:29.736Z,5.84
2023-04-15T05:19:32.288Z,5.74
2023-04-15T05:22:34.552Z,5.71
2023-04-15T05:25:36.984Z,5.66
2023-04-15T05:28:39.153Z,5.62
2023-04-15T05:31:41.915Z,5.71
2023-04-15T05:34:44.634Z,5.79
2023-04-15T05:37:47.337Z,5.72
2023-04-15T05:40:49.639Z,5.79
2023-04-15T05:43:52.304Z,5.93
2023-04-15T05:46:54.592Z,5.84
2023-04-15T05:49:57.235Z,5.79
2023-04-15T05:52:59.353Z,5.86
2023-04-15T05:56:01.748Z,5.91
2023-04-15T05:59:04.019Z,6.06
2023-04-15T06:02:06.396Z,6.28
2023-04-15T06:05:10.046Z,6.30
2023-04-15T06:08:12.949Z,6.34
2023-04-15T06:11:15.341Z,6.56
2023-04-15T06:14:17.548Z,6.58
2023-04-15T06:17:20.053Z,6.67
2023-04-15T06:20:22.488Z,6.64
2023-04-15T06:23:26.331Z,6.81
2023-04-15T06:26:29.195Z,7.85
2023-04-15T06:29:31.253Z,7.86
2023-04-15T06:32:33.546Z,7.70
2023-04-15T06:35:35.652Z,7.82
2023-04-15T06:38:37.726Z,7.63
2023-04-15T06:41:39.815Z,7.73
2023-04-15T06:44:42.171Z,7.55
2023-04-15T06:47:44.236Z,7.53
2023-04-15T06:50:46.394Z,7.81
2023-04-15T06:53:48.547Z,7.79
2023-04-15T06:56:51.599Z,7.66
2023-04-15T06:59:54.718Z,7.84
2023-04-15T07:02:57.119Z,8.08
2023-04-15T07:05:59.732Z,8.09
2023-04-15T07:09:03.267Z,8.05
2023-04-15T07:12:05.612Z,7.95
2023-04-15T07:15:07.912Z,8.04
2023-04-15T07:18:09.990Z,8.35
2023-04-15T07:21:12.649Z,8.56
2023-04-15T07:24:18.145Z,8.97
2023-04-15T07:27:20.274Z,9.36
2023-04-15T07:30:22.364Z,9.59
2023-04-15T07:33:24.420Z,8.81
2023-04-15T07:36:26.438Z,8.68
2023-04-15T07:39:29.268Z,8.92
2023-04-15T07:42:31.302Z,9.04
2023-04-15T07:45:33.765Z,10.61
2023-04-15T07:48:37.049Z,12.12
2023-04-15T07:51:39.633Z,12.69
2023-04-15T07:54:41.775Z,12.58
2023-04-15T07:57:43.826Z,11.38
2023-04-15T08:00:46.055Z,10.86
2023-04-15T08:03:48.672Z,10.42
2023-04-15T08:06:50.964Z,10.30
2023-04-15T08:09:53.075Z,9.73
2023-04-15T08:12:55.159Z,9.66
2023-04-15T08:16:16.195Z,11.12
2023-04-15T08:19:18.397Z,13.43
2023-04-15T08:22:21.351Z,14.45
2023-04-15T08:25:24.440Z,12.93
2023-04-15T08:28:26.526Z,13.73
2023-04-15T08:31:29.893Z,13.53
2023-04-15T08:34:32.130Z,11.92
2023-04-15T08:37:34.223Z,10.97
2023-04-15T08:40:41.437Z,10.23
2023-04-15T08:43:49.259Z,11.02
2023-04-15T08:46:52.529Z,11.10
2023-04-15T08:49:55.786Z,11.34
2023-04-15T08:52:59.337Z,11.09
2023-04-15T08:56:03.432Z,11.23
2023-04-15T08:59:06.382Z,11.57
2023-04-15T09:02:09.388Z,12.88
2023-04-15T09:05:11.483Z,12.51
2023-04-15T09:08:13.785Z,13.15
2023-04-15T09:11:19.921Z,14.02
2023-04-15T09:14:22.873Z,11.91
2023-04-15T09:17:26.709Z,10.84
2023-04-15T09:20:28.863Z,10.97
2023-04-15T09:23:31.200Z,10.92
2023-04-15T09:26:37.297Z,11.35
2023-04-15T09:29:41.729Z,10.79
2023-04-15T09:32:58.150Z,10.36
2023-04-15T09:36:01.585Z,10.16
2023-04-15T09:39:03.978Z,10.07
2023-04-15T09:42:07.125Z,9.99
2023-04-15T09:45:12.201Z,10.20
2023-04-15T09:48:18.543Z,10.58
2023-04-15T09:51:33.332Z,10.65
2023-04-15T09:54:36.644Z,11.02
2023-04-15T09:57:40.164Z,12.84
2023-04-15T10:00:42.244Z,12.20
2023-04-15T10:03:45.218Z,14.85
2023-04-15T10:06:47.514Z,15.58
2023-04-15T10:09:49.932Z,17.85
2023-04-15T10:12:52.630Z,17.44
2023-04-15T10:15:58.657Z,15.01
2023-04-15T10:19:01.996Z,12.98
2023-04-15T10:22:04.502Z,12.30
2023-04-15T10:25:07.603Z,11.50
2023-04-15T10:28:10.455Z,11.58
2023-04-15T10:31:14.218Z,11.61
2023-04-15T10:34:17.164Z,11.55
2023-04-15T10:37:23.641Z,11.53
2023-04-15T10:40:27.870Z,10.97
2023-04-15T10:43:30.052Z,10.42
2023-04-15T10:46:43.125Z,11.18
2023-04-15T10:49:46.610Z,12.10
2023-04-15T10:52:51.837Z,12.67
2023-04-15T10:55:54.277Z,12.35
2023-04-15T10:58:58.699Z,12.56
2023-04-15T11:02:02.186Z,12.17
2023-04-15T11:05:04.518Z,11.67
2023-04-15T11:08:06.969Z,11.25
2023-04-15T11:11:09.378Z,11.16
2023-04-15T11:14:15.634Z,10.89
2023-04-15T11:17:27.797Z,11.30
2023-04-15T11:20:30.258Z,10.73
2023-04-15T11:23:37.793Z,10.65
2023-04-15T11:26:40.249Z,10.52
2023-04-15T11:29:42.457Z,11.16
2023-04-15T11:32:44.668Z,12.09
2023-04-15T11:35:47.225Z,11.41
2023-04-15T11:38:49.344Z,11.85
2023-04-15T11:41:51.402Z,11.56
2023-04-15T11:45:06.627Z,11.77
2023-04-15T11:48:09.491Z,11.82
2023-04-15T11:51:12.150Z,11.70
2023-04-15T11:54:18.804Z,11.58
2023-04-15T11:57:20.950Z,12.33
2023-04-15T12:00:23.147Z,12.11
2023-04-15T12:03:25.473Z,11.45
2023-04-15T12:06:33.632Z,12.31
2023-04-15T12:09:39.877Z,12.68
2023-04-15T12:12:42.283Z,12.31
2023-04-15T12:15:44.799Z,12.00
2023-04-15T12:18:47.668Z,11.91
2023-04-15T12:21:49.800Z,12.23
2023-04-15T12:24:57.153Z,11.83
2023-04-15T12:27:59.617Z,12.18
2023-04-15T12:31:06.909Z,11.78
2023-04-15T12:34:09.288Z,12.14
2023-04-15T12:37:13.188Z,11.86
2023-04-15T12:40:15.433Z,12.53
2023-04-15T12:43:17.513Z,12.91
2023-04-15T12:46:20.373Z,12.62
2023-04-15T12:49:23.076Z,12.89
2023-04-15T12:52:25.143Z,13.22
2023-04-15T12:55:27.757Z,13.02
2023-04-15T12:58:29.858Z,12.39
2023-04-15T13:01:32.095Z,11.72
2023-04-15T13:04:34.374Z,11.40
2023-04-15T13:07:36.507Z,11.66
2023-04-15T13:10:38.602Z,11.37
2023-04-15T13:13:40.691Z,11.30
2023-04-15T13:16:42.802Z,10.97
2023-04-15T13:19:44.907Z,11.12
2023-04-15T13:22:47.018Z,10.79
2023-04-15T13:25:49.134Z,10.91
2023-04-15T13:28:51.215Z,11.06
2023-04-15T13:31:53.462Z,11.20
2023-04-15T13:34:56.259Z,10.87
2023-04-15T13:37:58.370Z,10.80
2023-04-15T13:41:00.654Z,10.91
2023-04-15T13:44:03.102Z,11.37
2023-04-15T13:47:05.442Z,11.66
2023-04-15T13:50:07.779Z,11.62
2023-04-15T13:53:09.876Z,11.73
2023-04-15T13:56:12.020Z,11.97
2023-04-15T13:59:14.055Z,11.71
2023-04-15T14:02:16.331Z,11.56
2023-04-15T14:05:18.543Z,11.65
2023-04-15T14:08:20.708Z,11.66
2023-04-15T14:11:22.799Z,11.64
2023-04-15T14:14:24.987Z,11.38
2023-04-15T14:17:27.113Z,11.18
2023-04-15T14:20:29.214Z,11.15
2023-04-15T14:23:31.246Z,11.25
2023-04-15T14:26:33.407Z,11.03
2023-04-15T14:29:35.518Z,11.17
2023-04-15T14:32:37.664Z,11.05
2023-04-15T14:35:39.778Z,10.94
2023-04-15T14:38:41.867Z,11.06
2023-04-15T14:41:43.939Z,10.85
2023-04-15T14:44:46.381Z,10.51
2023-04-15T14:47:48.690Z,10.55
2023-04-15T14:50:50.950Z,10.48
2023-04-15T14:53:53.013Z,10.34
2023-04-15T14:56:55.929Z,10.40
2023-04-15T14:59:59.317Z,10.41
2023-04-15T15:03:02.310Z,10.62
2023-04-15T15:06:04.474Z,10.52
2023-04-15T15:09:06.770Z,10.47
2023-04-15T15:12:09.165Z,10.47
2023-04-15T15:15:28.245Z,10.71
2023-04-15T15:18:31.428Z,10.71
2023-04-15T15:21:33.662Z,10.71
2023-04-15T15:24:35.869Z,10.58
2023-04-15T15:27:38.443Z,10.64
2023-04-15T15:30:40.707Z,10.60
2023-04-15T15:33:42.813Z,10.69
2023-04-15T15:36:44.845Z,10.59
2023-04-15T15:39:46.951Z,10.46
2023-04-15T15:42:50.896Z,10.43
2023-04-15T15:45:55.538Z,10.47
2023-04-15T15:48:57.914Z,10.46
2023-04-15T15:51:59.974Z,10.54
2023-04-15T15:55:02.184Z,10.54
2023-04-15T15:58:04.258Z,10.59
2023-04-15T16:01:06.369Z,10.58
2023-04-15T16:04:08.855Z,10.51
2023-04-15T16:07:11.794Z,10.43
2023-04-15T16:10:14.222Z,10.34
2023-04-15T16:13:16.353Z,10.35
2023-04-15T16:16:18.420Z,10.24
2023-04-15T16:19:20.997Z,10.11
2023-04-15T16:22:23.526Z,10.06
2023-04-15T16:25:25.746Z,10.00
2023-04-15T16:28:27.847Z,9.93
2023-04-15T16:31:30.510Z,9.87
2023-04-15T16:34:32.574Z,9.87
2023-04-15T16:37:36.099Z,9.81
2023-04-15T16:40:38.301Z,9.84
2023-04-15T16:43:40.534Z,9.70
2023-04-15T16:46:42.589Z,9.71
2023-04-15T16:49:44.675Z,9.71
2023-04-15T16:52:46.775Z,9.72
2023-04-15T16:55:48.843Z,9.72
2023-04-15T16:58:50.983Z,9.71
2023-04-15T17:01:54.003Z,9.67
2023-04-15T17:04:56.155Z,9.57
2023-04-15T17:07:58.376Z,9.52
2023-04-15T17:11:00.496Z,9.45
2023-04-15T17:14:02.982Z,9.41
2023-04-15T17:17:06.121Z,9.50
2023-04-15T17:20:08.382Z,9.49
2023-04-15T17:23:10.544Z,9.44
2023-04-15T17:26:12.610Z,9.42
2023-04-15T17:29:14.717Z,9.30
2023-04-15T17:32:16.850Z,9.17
2023-04-15T17:35:18.947Z,9.29
2023-04-15T17:38:21.093Z,9.35
2023-04-15T17:41:23.326Z,9.46
2023-04-15T17:44:25.492Z,9.45
2023-04-15T17:47:27.809Z,9.39
2023-04-15T17:50:29.980Z,9.30
2023-04-15T17:53:32.068Z,9.18
2023-04-15T17:56:34.525Z,8.99
2023-04-15T17:59:36.644Z,8.89
2023-04-15T18:02:39.029Z,8.82
2023-04-15T18:05:42.616Z,8.77
2023-04-15T18:08:44.992Z,8.76
2023-04-15T18:11:48.453Z,8.74
2023-04-15T18:14:50.584Z,8.69
2023-04-15T18:17:52.923Z,8.70
2023-04-15T18:20:55.072Z,8.63
2023-04-15T18:23:57.147Z,8.58
2023-04-15T18:26:59.253Z,8.54
2023-04-15T18:30:01.378Z,8.40
2023-04-15T18:33:03.692Z,8.48
2023-04-15T18:36:05.987Z,8.38
2023-04-15T18:39:08.501Z,8.33
2023-04-15T18:42:10.653Z,8.22
2023-04-15T18:45:12.761Z,8.03
2023-04-15T18:48:15.979Z,8.04
2023-04-15T18:51:18.142Z,8.05
2023-04-15T18:54:20.245Z,8.11
2023-04-15T18:57:26.247Z,8.28
2023-04-15T19:00:36.430Z,8.26
2023-04-15T19:03:38.591Z,8.32
2023-04-15T19:06:40.835Z,8.27
2023-04-15T19:09:43.090Z,8.16
2023-04-15T19:12:45.189Z,8.06
2023-04-15T19:15:47.296Z,8.16
2023-04-15T19:18:49.359Z,8.11
2023-04-15T19:21:52.694Z,8.09
2023-04-15T19:24:54.801Z,8.04
2023-04-15T19:27:58.907Z,8.04
2023-04-15T19:31:02.128Z,8.07
2023-04-15T19:34:04.326Z,8.02
2023-04-15T19:37:06.460Z,7.97
2023-04-15T19:40:09.651Z,7.85
2023-04-15T19:43:11.748Z,7.78
2023-04-15T19:46:13.937Z,7.78
2023-04-15T19:49:16.727Z,7.69
2023-04-15T19:52:18.799Z,7.43
2023-04-15T19:55:20.955Z,7.17
2023-04-15T19:58:23.029Z,6.75
2023-04-15T20:01:25.321Z,6.58
2023-04-15T20:04:27.741Z,6.87
2023-04-15T20:07:29.938Z,7.02
2023-04-15T20:10:32.010Z,7.04
2023-04-15T20:13:34.161Z,7.15
2023-04-15T20:16:38.347Z,7.25
2023-04-15T20:19:40.419Z,7.34
2023-04-15T20:22:42.507Z,7.09
2023-04-15T20:25:44.652Z,7.11
2023-04-15T20:28:46.701Z,7.19
2023-04-15T20:31:48.850Z,7.16
2023-04-15T20:34:51.193Z,6.99
2023-04-15T20:37:53.411Z,6.65
2023-04-15T20:40:55.786Z,6.74
2023-04-15T20:43:57.983Z,6.80
2023-04-15T20:47:00.075Z,7.02
2023-04-15T20:50:02.370Z,7.00
2023-04-15T20:53:05.046Z,6.99
2023-04-15T20:56:07.316Z,6.98
2023-04-15T20:59:09.395Z,7.20
2023-04-15T21:02:11.681Z,6.96
2023-04-15T21:05:13.877Z,7.01
2023-04-15T21:08:16.068Z,7.06
2023-04-15T21:11:33.197Z,7.06
2023-04-15T21:14:40.570Z,7.09
2023-04-15T21:17:42.722Z,7.19
2023-04-15T21:20:44.822Z,7.21
2023-04-15T21:23:46.959Z,6.99
2023-04-15T21:26:49.327Z,7.11
2023-04-15T21:29:51.509Z,7.24
2023-04-15T21:32:53.584Z,7.27
2023-04-15T21:35:55.847Z,7.24
2023-04-15T21:38:57.996Z,7.32
2023-04-15T21:42:00.231Z,7.21
2023-04-15T21:45:02.559Z,7.19
2023-04-15T21:48:08.256Z,7.00
2023-04-15T21:51:10.771Z,6.89
2023-04-15T21:54:12.924Z,6.95
2023-04-15T21:57:15.340Z,6.90
2023-04-15T22:00:17.551Z,6.86
2023-04-15T22:03:19.793Z,6.83
2023-04-15T22:06:22.069Z,6.83
2023-04-15T22:09:24.111Z,6.71
2023-04-15T22:12:26.341Z,6.60
2023-04-15T22:15:28.536Z,6.47
2023-04-15T22:18:30.611Z,6.35
2023-04-15T22:21:32.645Z,6.16
2023-04-15T22:24:40.421Z,6.12
2023-04-15T22:27:42.756Z,6.05
2023-04-15T22:30:44.824Z,6.03
2023-04-15T22:33:46.866Z,6.05
2023-04-15T22:36:49.370Z,6.13
2023-04-15T22:39:51.992Z,6.19
2023-04-15T22:42:54.052Z,5.92
2023-04-15T22:45:56.738Z,5.48
2023-04-15T22:48:59.380Z,5.57
2023-04-15T22:52:01.563Z,5.68
2023-04-15T22:55:04.116Z,5.73
2023-04-15T22:58:06.288Z,5.70
2023-04-15T23:01:08.384Z,5.85
2023-04-15T23:04:24.850Z,5.86
2023-04-15T23:07:29.017Z,5.90
2023-04-15T23:10:31.151Z,5.90
2023-04-15T23:13:36.185Z,5.72
2023-04-15T23:16:38.250Z,5.56
2023-04-15T23:19:40.631Z,5.40
2023-04-15T23:22:43.271Z,5.59
2023-04-15T23:25:45.386Z,5.74
2023-04-15T23:28:47.439Z,5.80
2023-04-15T23:31:49.565Z,5.87
2023-04-15T23:34:52.291Z,5.94
2023-04-15T23:37:54.457Z,5.87
2023-04-15T23:40:56.571Z,5.69
2023-04-15T23:43:58.728Z,5.52
2023-04-15T23:47:00.895Z,5.56
2023-04-15T23:50:03.622Z,5.52
2023-04-15T23:53:05.701Z,5.46
2023-04-15T23:56:07.882Z,5.62
2023-04-15T23:59:10.164Z,5.69
